sensor_id;sensor_type;location;lat;lon;timestamp;P1;durP1;ratioP1;P2;durP2;ratioP2
49175;SDS011;35012;47.200;9.748;2023-03-01T00:01:07;20.67;;;16.27;;
49175;SDS011;35012;47.200;9.748;2023-03-01T00:03:33;22.90;;;16.37;;
49175;SDS011;35012;47.200;9.748;2023-03-01T00:06:00;23.03;;;15.90;;
49175;SDS011;35012;47.200;9.748;2023-03-01T00:08:26;23.87;;;17.77;;
49175;SDS011;35012;47.200;9.748;2023-03-01T00:11:06;21.83;;;16.43;;
49175;SDS011;35012;47.200;9.748;2023-03-01T00:13:31;21.87;;;16.17;;
49175;SDS011;35012;47.200;9.748;2023-03-01T00:15:57;22.40;;;16.37;;
49175;SDS011;35012;47.200;9.748;2023-03-01T00:18:23;23.87;;;17.30;;
49175;SDS011;35012;47.200;9.748;2023-03-01T00:20:49;25.67;;;17.53;;
49175;SDS011;35012;47.200;9.748;2023-03-01T00:23:16;22.93;;;17.00;;
49175;SDS011;35012;47.200;9.748;2023-03-01T00:25:42;23.27;;;16.87;;
49175;SDS011;35012;47.200;9.748;2023-03-01T00:28:08;22.20;;;16.60;;
49175;SDS011;35012;47.200;9.748;2023-03-01T00:30:33;24.10;;;17.03;;
49175;SDS011;35012;47.200;9.748;2023-03-01T00:32:59;23.43;;;17.33;;
49175;SDS011;35012;47.200;9.748;2023-03-01T00:35:24;22.20;;;16.80;;
49175;SDS011;35012;47.200;9.748;2023-03-01T00:37:50;22.70;;;17.50;;
49175;SDS011;35012;47.200;9.748;2023-03-01T00:40:23;23.07;;;16.83;;
49175;SDS011;35012;47.200;9.748;2023-03-01T00:42:49;23.50;;;17.10;;
49175;SDS011;35012;47.200;9.748;2023-03-01T00:45:14;21.37;;;16.60;;
49175;SDS011;35012;47.200;9.748;2023-03-01T00:47:40;22.93;;;17.30;;
49175;SDS011;35012;47.200;9.748;2023-03-01T00:50:05;22.97;;;17.57;;
49175;SDS011;35012;47.200;9.748;2023-03-01T00:52:31;22.23;;;16.60;;
49175;SDS011;35012;47.200;9.748;2023-03-01T00:54:57;22.50;;;16.60;;
49175;SDS011;35012;47.200;9.748;2023-03-01T00:57:23;22.27;;;16.80;;
49175;SDS011;35012;47.200;9.748;2023-03-01T00:59:48;22.07;;;17.20;;
49175;SDS011;35012;47.200;9.748;2023-03-01T01:02:14;22.37;;;16.43;;
49175;SDS011;35012;47.200;9.748;2023-03-01T01:04:40;22.87;;;16.53;;
49175;SDS011;35012;47.200;9.748;2023-03-01T01:07:05;23.23;;;17.27;;
49175;SDS011;35012;47.200;9.748;2023-03-01T01:09:31;22.33;;;16.80;;
49175;SDS011;35012;47.200;9.748;2023-03-01T01:11:56;24.20;;;17.67;;
49175;SDS011;35012;47.200;9.748;2023-03-01T01:14:22;25.07;;;18.07;;
49175;SDS011;35012;47.200;9.748;2023-03-01T01:16:47;25.73;;;18.23;;
49175;SDS011;35012;47.200;9.748;2023-03-01T01:19:13;24.03;;;17.13;;
49175;SDS011;35012;47.200;9.748;2023-03-01T01:21:38;23.43;;;17.97;;
49175;SDS011;35012;47.200;9.748;2023-03-01T01:24:04;27.53;;;17.53;;
49175;SDS011;35012;47.200;9.748;2023-03-01T01:26:31;23.03;;;17.30;;
49175;SDS011;35012;47.200;9.748;2023-03-01T01:28:58;25.27;;;17.63;;
49175;SDS011;35012;47.200;9.748;2023-03-01T01:31:25;22.63;;;17.27;;
49175;SDS011;35012;47.200;9.748;2023-03-01T01:33:51;22.00;;;15.80;;
49175;SDS011;35012;47.200;9.748;2023-03-01T01:36:17;23.93;;;16.93;;
49175;SDS011;35012;47.200;9.748;2023-03-01T01:38:43;23.07;;;16.90;;
49175;SDS011;35012;47.200;9.748;2023-03-01T01:41:09;26.07;;;17.53;;
49175;SDS011;35012;47.200;9.748;2023-03-01T01:43:40;23.03;;;16.93;;
49175;SDS011;35012;47.200;9.748;2023-03-01T01:46:13;23.93;;;16.60;;
49175;SDS011;35012;47.200;9.748;2023-03-01T01:48:48;25.90;;;17.77;;
49175;SDS011;35012;47.200;9.748;2023-03-01T01:51:20;23.13;;;17.73;;
49175;SDS011;35012;47.200;9.748;2023-03-01T01:53:52;22.83;;;17.60;;
49175;SDS011;35012;47.200;9.748;2023-03-01T01:56:21;25.63;;;18.20;;
49175;SDS011;35012;47.200;9.748;2023-03-01T01:58:48;22.67;;;16.90;;
49175;SDS011;35012;47.200;9.748;2023-03-01T02:01:15;24.03;;;17.60;;
49175;SDS011;35012;47.200;9.748;2023-03-01T02:03:40;23.93;;;17.60;;
49175;SDS011;35012;47.200;9.748;2023-03-01T02:06:12;24.40;;;16.97;;
49175;SDS011;35012;47.200;9.748;2023-03-01T02:08:44;23.43;;;16.40;;
49175;SDS011;35012;47.200;9.748;2023-03-01T02:11:11;24.73;;;17.20;;
49175;SDS011;35012;47.200;9.748;2023-03-01T02:13:39;23.77;;;16.77;;
49175;SDS011;35012;47.200;9.748;2023-03-01T02:16:08;23.63;;;17.30;;
49175;SDS011;35012;47.200;9.748;2023-03-01T02:18:34;24.13;;;17.80;;
49175;SDS011;35012;47.200;9.748;2023-03-01T02:23:28;24.40;;;17.57;;
49175;SDS011;35012;47.200;9.748;2023-03-01T02:25:58;25.30;;;18.13;;
49175;SDS011;35012;47.200;9.748;2023-03-01T02:28:34;25.17;;;17.67;;
49175;SDS011;35012;47.200;9.748;2023-03-01T02:31:01;27.50;;;19.10;;
49175;SDS011;35012;47.200;9.748;2023-03-01T02:33:46;24.97;;;17.73;;
49175;SDS011;35012;47.200;9.748;2023-03-01T02:36:20;25.57;;;17.93;;
49175;SDS011;35012;47.200;9.748;2023-03-01T02:38:56;23.70;;;17.50;;
49175;SDS011;35012;47.200;9.748;2023-03-01T02:41:22;26.43;;;19.80;;
49175;SDS011;35012;47.200;9.748;2023-03-01T02:43:49;23.97;;;18.33;;
49175;SDS011;35012;47.200;9.748;2023-03-01T02:46:15;23.07;;;18.00;;
49175;SDS011;35012;47.200;9.748;2023-03-01T02:48:49;24.30;;;18.07;;
49175;SDS011;35012;47.200;9.748;2023-03-01T02:53:56;26.23;;;18.83;;
49175;SDS011;35012;47.200;9.748;2023-03-01T02:56:47;23.07;;;17.93;;
49175;SDS011;35012;47.200;9.748;2023-03-01T02:59:13;28.50;;;19.17;;
49175;SDS011;35012;47.200;9.748;2023-03-01T03:01:39;25.47;;;18.47;;
49175;SDS011;35012;47.200;9.748;2023-03-01T03:04:08;24.23;;;17.67;;
49175;SDS011;35012;47.200;9.748;2023-03-01T03:06:35;24.57;;;18.97;;
49175;SDS011;35012;47.200;9.748;2023-03-01T03:09:01;23.67;;;18.53;;
49175;SDS011;35012;47.200;9.748;2023-03-01T03:11:28;25.07;;;18.77;;
49175;SDS011;35012;47.200;9.748;2023-03-01T03:13:53;25.37;;;18.90;;
49175;SDS011;35012;47.200;9.748;2023-03-01T03:16:20;24.67;;;18.47;;
49175;SDS011;35012;47.200;9.748;2023-03-01T03:18:46;23.63;;;18.47;;
49175;SDS011;35012;47.200;9.748;2023-03-01T03:21:12;29.00;;;19.13;;
49175;SDS011;35012;47.200;9.748;2023-03-01T03:23:37;27.27;;;19.13;;
49175;SDS011;35012;47.200;9.748;2023-03-01T03:26:04;24.47;;;18.73;;
49175;SDS011;35012;47.200;9.748;2023-03-01T03:28:30;25.97;;;17.73;;
49175;SDS011;35012;47.200;9.748;2023-03-01T03:30:56;26.73;;;19.77;;
49175;SDS011;35012;47.200;9.748;2023-03-01T03:33:22;24.80;;;18.70;;
49175;SDS011;35012;47.200;9.748;2023-03-01T03:35:48;24.87;;;18.20;;
49175;SDS011;35012;47.200;9.748;2023-03-01T03:38:15;25.33;;;17.87;;
49175;SDS011;35012;47.200;9.748;2023-03-01T03:43:18;25.73;;;17.13;;
49175;SDS011;35012;47.200;9.748;2023-03-01T03:45:46;24.20;;;17.67;;
49175;SDS011;35012;47.200;9.748;2023-03-01T03:48:13;25.33;;;17.87;;
49175;SDS011;35012;47.200;9.748;2023-03-01T03:50:40;27.03;;;17.87;;
49175;SDS011;35012;47.200;9.748;2023-03-01T03:53:07;27.60;;;17.67;;
49175;SDS011;35012;47.200;9.748;2023-03-01T03:55:36;24.03;;;17.87;;
49175;SDS011;35012;47.200;9.748;2023-03-01T03:58:04;23.80;;;18.67;;
49175;SDS011;35012;47.200;9.748;2023-03-01T04:00:41;25.63;;;18.77;;
49175;SDS011;35012;47.200;9.748;2023-03-01T04:03:08;25.30;;;18.93;;
49175;SDS011;35012;47.200;9.748;2023-03-01T04:05:35;25.77;;;18.77;;
49175;SDS011;35012;47.200;9.748;2023-03-01T04:08:01;24.33;;;18.97;;
49175;SDS011;35012;47.200;9.748;2023-03-01T04:10:27;26.93;;;18.93;;
49175;SDS011;35012;47.200;9.748;2023-03-01T04:12:53;26.37;;;19.47;;
49175;SDS011;35012;47.200;9.748;2023-03-01T04:15:21;26.33;;;19.23;;
49175;SDS011;35012;47.200;9.748;2023-03-01T04:17:49;29.20;;;20.27;;
49175;SDS011;35012;47.200;9.748;2023-03-01T04:20:17;25.67;;;18.00;;
49175;SDS011;35012;47.200;9.748;2023-03-01T04:22:51;28.27;;;20.03;;
49175;SDS011;35012;47.200;9.748;2023-03-01T04:25:17;26.53;;;18.93;;
49175;SDS011;35012;47.200;9.748;2023-03-01T04:27:43;28.37;;;19.60;;
49175;SDS011;35012;47.200;9.748;2023-03-01T04:30:09;31.63;;;20.37;;
49175;SDS011;35012;47.200;9.748;2023-03-01T04:32:35;25.77;;;19.07;;
49175;SDS011;35012;47.200;9.748;2023-03-01T04:35:00;25.60;;;19.03;;
49175;SDS011;35012;47.200;9.748;2023-03-01T04:37:26;26.13;;;19.03;;
49175;SDS011;35012;47.200;9.748;2023-03-01T04:39:52;26.90;;;18.63;;
49175;SDS011;35012;47.200;9.748;2023-03-01T04:42:18;26.83;;;19.37;;
49175;SDS011;35012;47.200;9.748;2023-03-01T04:44:44;26.63;;;18.47;;
49175;SDS011;35012;47.200;9.748;2023-03-01T04:47:10;29.13;;;18.63;;
49175;SDS011;35012;47.200;9.748;2023-03-01T04:49:35;24.20;;;18.27;;
49175;SDS011;35012;47.200;9.748;2023-03-01T04:52:01;27.07;;;19.03;;
49175;SDS011;35012;47.200;9.748;2023-03-01T04:54:33;28.60;;;19.77;;
49175;SDS011;35012;47.200;9.748;2023-03-01T04:57:00;25.53;;;18.67;;
49175;SDS011;35012;47.200;9.748;2023-03-01T04:59:27;25.03;;;18.23;;
49175;SDS011;35012;47.200;9.748;2023-03-01T05:01:53;28.93;;;20.03;;
49175;SDS011;35012;47.200;9.748;2023-03-01T05:04:23;28.17;;;19.60;;
49175;SDS011;35012;47.200;9.748;2023-03-01T05:06:49;27.70;;;19.37;;
49175;SDS011;35012;47.200;9.748;2023-03-01T05:09:15;27.33;;;19.33;;
49175;SDS011;35012;47.200;9.748;2023-03-01T05:11:40;26.60;;;19.17;;
49175;SDS011;35012;47.200;9.748;2023-03-01T05:14:06;27.63;;;19.57;;
49175;SDS011;35012;47.200;9.748;2023-03-01T05:16:33;29.47;;;19.57;;
49175;SDS011;35012;47.200;9.748;2023-03-01T05:18:59;29.13;;;20.03;;
49175;SDS011;35012;47.200;9.748;2023-03-01T05:21:25;27.27;;;19.40;;
49175;SDS011;35012;47.200;9.748;2023-03-01T05:23:51;28.43;;;19.73;;
49175;SDS011;35012;47.200;9.748;2023-03-01T05:26:17;28.90;;;19.93;;
49175;SDS011;35012;47.200;9.748;2023-03-01T05:28:44;31.80;;;20.20;;
49175;SDS011;35012;47.200;9.748;2023-03-01T05:31:10;28.43;;;20.97;;
49175;SDS011;35012;47.200;9.748;2023-03-01T05:33:36;30.13;;;20.73;;
49175;SDS011;35012;47.200;9.748;2023-03-01T05:36:03;29.90;;;21.57;;
49175;SDS011;35012;47.200;9.748;2023-03-01T05:38:28;29.83;;;21.83;;
49175;SDS011;35012;47.200;9.748;2023-03-01T05:40:54;28.43;;;20.93;;
49175;SDS011;35012;47.200;9.748;2023-03-01T05:43:19;31.70;;;21.80;;
49175;SDS011;35012;47.200;9.748;2023-03-01T05:45:45;30.53;;;19.70;;
49175;SDS011;35012;47.200;9.748;2023-03-01T05:48:11;27.50;;;19.77;;
49175;SDS011;35012;47.200;9.748;2023-03-01T05:50:39;28.10;;;19.50;;
49175;SDS011;35012;47.200;9.748;2023-03-01T05:53:07;28.37;;;19.17;;
49175;SDS011;35012;47.200;9.748;2023-03-01T05:55:34;26.37;;;19.30;;
49175;SDS011;35012;47.200;9.748;2023-03-01T05:58:01;29.40;;;19.73;;
49175;SDS011;35012;47.200;9.748;2023-03-01T06:00:28;30.60;;;20.00;;
49175;SDS011;35012;47.200;9.748;2023-03-01T06:02:55;28.50;;;20.47;;
49175;SDS011;35012;47.200;9.748;2023-03-01T06:05:22;26.57;;;19.90;;
49175;SDS011;35012;47.200;9.748;2023-03-01T06:07:48;25.70;;;18.90;;
49175;SDS011;35012;47.200;9.748;2023-03-01T06:10:15;26.17;;;18.60;;
49175;SDS011;35012;47.200;9.748;2023-03-01T06:12:41;25.80;;;17.77;;
49175;SDS011;35012;47.200;9.748;2023-03-01T06:15:08;25.13;;;18.83;;
49175;SDS011;35012;47.200;9.748;2023-03-01T06:17:36;25.87;;;19.20;;
49175;SDS011;35012;47.200;9.748;2023-03-01T06:20:04;27.73;;;19.73;;
49175;SDS011;35012;47.200;9.748;2023-03-01T06:22:31;29.03;;;20.57;;
49175;SDS011;35012;47.200;9.748;2023-03-01T06:24:56;25.97;;;18.97;;
49175;SDS011;35012;47.200;9.748;2023-03-01T06:27:22;25.53;;;18.77;;
49175;SDS011;35012;47.200;9.748;2023-03-01T06:29:47;26.87;;;19.97;;
49175;SDS011;35012;47.200;9.748;2023-03-01T06:32:13;26.03;;;19.00;;
49175;SDS011;35012;47.200;9.748;2023-03-01T06:34:39;26.53;;;18.90;;
49175;SDS011;35012;47.200;9.748;2023-03-01T06:37:05;25.37;;;18.00;;
49175;SDS011;35012;47.200;9.748;2023-03-01T06:39:32;29.60;;;18.63;;
49175;SDS011;35012;47.200;9.748;2023-03-01T06:41:58;28.77;;;20.10;;
49175;SDS011;35012;47.200;9.748;2023-03-01T06:44:23;30.20;;;20.60;;
49175;SDS011;35012;47.200;9.748;2023-03-01T06:46:49;29.43;;;20.30;;
49175;SDS011;35012;47.200;9.748;2023-03-01T06:49:14;29.27;;;18.90;;
49175;SDS011;35012;47.200;9.748;2023-03-01T06:51:41;26.60;;;18.90;;
49175;SDS011;35012;47.200;9.748;2023-03-01T06:54:07;28.53;;;19.73;;
49175;SDS011;35012;47.200;9.748;2023-03-01T06:56:32;33.37;;;21.60;;
49175;SDS011;35012;47.200;9.748;2023-03-01T06:58:58;33.50;;;22.60;;
49175;SDS011;35012;47.200;9.748;2023-03-01T07:01:24;26.93;;;18.30;;
49175;SDS011;35012;47.200;9.748;2023-03-01T07:03:50;22.20;;;15.03;;
49175;SDS011;35012;47.200;9.748;2023-03-01T07:06:15;24.63;;;15.63;;
49175;SDS011;35012;47.200;9.748;2023-03-01T07:08:41;22.47;;;15.60;;
49175;SDS011;35012;47.200;9.748;2023-03-01T07:11:06;20.87;;;14.63;;
49175;SDS011;35012;47.200;9.748;2023-03-01T07:13:32;23.10;;;15.33;;
49175;SDS011;35012;47.200;9.748;2023-03-01T07:15:57;20.07;;;14.10;;
49175;SDS011;35012;47.200;9.748;2023-03-01T07:18:23;21.10;;;14.20;;
49175;SDS011;35012;47.200;9.748;2023-03-01T07:20:49;19.57;;;13.60;;
49175;SDS011;35012;47.200;9.748;2023-03-01T07:23:14;19.50;;;14.03;;
49175;SDS011;35012;47.200;9.748;2023-03-01T07:25:40;20.40;;;13.50;;
49175;SDS011;35012;47.200;9.748;2023-03-01T07:28:06;19.10;;;13.70;;
49175;SDS011;35012;47.200;9.748;2023-03-01T07:30:31;20.07;;;13.63;;
49175;SDS011;35012;47.200;9.748;2023-03-01T07:32:57;20.07;;;12.97;;
49175;SDS011;35012;47.200;9.748;2023-03-01T07:35:24;20.87;;;13.73;;
49175;SDS011;35012;47.200;9.748;2023-03-01T07:37:51;18.20;;;13.87;;
49175;SDS011;35012;47.200;9.748;2023-03-01T07:40:17;20.00;;;13.93;;
49175;SDS011;35012;47.200;9.748;2023-03-01T07:42:43;20.07;;;13.47;;
49175;SDS011;35012;47.200;9.748;2023-03-01T07:45:09;21.40;;;14.27;;
49175;SDS011;35012;47.200;9.748;2023-03-01T07:47:35;27.07;;;17.57;;
49175;SDS011;35012;47.200;9.748;2023-03-01T07:50:01;25.97;;;18.90;;
49175;SDS011;35012;47.200;9.748;2023-03-01T07:52:27;27.20;;;19.00;;
49175;SDS011;35012;47.200;9.748;2023-03-01T07:54:53;28.77;;;19.47;;
49175;SDS011;35012;47.200;9.748;2023-03-01T07:57:19;25.73;;;17.77;;
49175;SDS011;35012;47.200;9.748;2023-03-01T07:59:44;26.63;;;17.90;;
49175;SDS011;35012;47.200;9.748;2023-03-01T08:02:10;24.90;;;17.20;;
49175;SDS011;35012;47.200;9.748;2023-03-01T08:04:36;24.77;;;16.70;;
49175;SDS011;35012;47.200;9.748;2023-03-01T08:07:03;22.70;;;17.10;;
49175;SDS011;35012;47.200;9.748;2023-03-01T08:09:30;23.13;;;17.20;;
49175;SDS011;35012;47.200;9.748;2023-03-01T08:11:56;26.13;;;18.80;;
49175;SDS011;35012;47.200;9.748;2023-03-01T08:14:24;28.83;;;18.40;;
49175;SDS011;35012;47.200;9.748;2023-03-01T08:16:50;26.43;;;18.03;;
49175;SDS011;35012;47.200;9.748;2023-03-01T08:19:15;23.90;;;17.67;;
49175;SDS011;35012;47.200;9.748;2023-03-01T08:21:41;26.17;;;18.07;;
49175;SDS011;35012;47.200;9.748;2023-03-01T08:24:07;22.70;;;16.67;;
49175;SDS011;35012;47.200;9.748;2023-03-01T08:26:33;23.00;;;17.57;;
49175;SDS011;35012;47.200;9.748;2023-03-01T08:28:59;24.40;;;16.80;;
49175;SDS011;35012;47.200;9.748;2023-03-01T08:31:29;24.10;;;17.53;;
49175;SDS011;35012;47.200;9.748;2023-03-01T08:33:58;22.97;;;16.77;;
49175;SDS011;35012;47.200;9.748;2023-03-01T08:36:25;23.17;;;15.67;;
49175;SDS011;35012;47.200;9.748;2023-03-01T08:38:52;23.10;;;16.77;;
49175;SDS011;35012;47.200;9.748;2023-03-01T08:41:18;23.27;;;17.23;;
49175;SDS011;35012;47.200;9.748;2023-03-01T08:43:43;21.33;;;16.00;;
49175;SDS011;35012;47.200;9.748;2023-03-01T08:46:09;25.73;;;15.50;;
49175;SDS011;35012;47.200;9.748;2023-03-01T08:48:35;23.07;;;17.10;;
49175;SDS011;35012;47.200;9.748;2023-03-01T08:51:14;21.93;;;16.10;;
49175;SDS011;35012;47.200;9.748;2023-03-01T08:53:41;22.33;;;15.20;;
49175;SDS011;35012;47.200;9.748;2023-03-01T08:56:07;23.47;;;16.57;;
49175;SDS011;35012;47.200;9.748;2023-03-01T08:58:33;23.83;;;16.60;;
49175;SDS011;35012;47.200;9.748;2023-03-01T09:00:58;23.03;;;16.63;;
49175;SDS011;35012;47.200;9.748;2023-03-01T09:03:24;22.20;;;16.10;;
49175;SDS011;35012;47.200;9.748;2023-03-01T09:05:50;22.43;;;15.93;;
49175;SDS011;35012;47.200;9.748;2023-03-01T09:08:17;24.77;;;17.07;;
49175;SDS011;35012;47.200;9.748;2023-03-01T09:10:43;23.03;;;16.37;;
49175;SDS011;35012;47.200;9.748;2023-03-01T09:13:09;22.13;;;16.73;;
49175;SDS011;35012;47.200;9.748;2023-03-01T09:15:37;22.47;;;17.10;;
49175;SDS011;35012;47.200;9.748;2023-03-01T09:18:03;23.33;;;16.67;;
49175;SDS011;35012;47.200;9.748;2023-03-01T09:20:29;25.73;;;17.33;;
49175;SDS011;35012;47.200;9.748;2023-03-01T09:22:55;22.57;;;16.67;;
49175;SDS011;35012;47.200;9.748;2023-03-01T09:25:21;24.27;;;17.10;;
49175;SDS011;35012;47.200;9.748;2023-03-01T09:27:50;25.33;;;16.53;;
49175;SDS011;35012;47.200;9.748;2023-03-01T09:30:16;25.47;;;16.83;;
49175;SDS011;35012;47.200;9.748;2023-03-01T09:32:42;26.00;;;17.03;;
49175;SDS011;35012;47.200;9.748;2023-03-01T09:35:10;27.67;;;17.90;;
49175;SDS011;35012;47.200;9.748;2023-03-01T09:37:36;21.57;;;15.70;;
49175;SDS011;35012;47.200;9.748;2023-03-01T09:40:14;22.20;;;15.53;;
49175;SDS011;35012;47.200;9.748;2023-03-01T09:43:08;24.37;;;18.27;;
49175;SDS011;35012;47.200;9.748;2023-03-01T09:45:38;24.23;;;16.10;;
49175;SDS011;35012;47.200;9.748;2023-03-01T09:48:10;21.50;;;15.83;;
49175;SDS011;35012;47.200;9.748;2023-03-01T09:50:40;24.13;;;15.83;;
49175;SDS011;35012;47.200;9.748;2023-03-01T09:53:09;24.67;;;16.27;;
49175;SDS011;35012;47.200;9.748;2023-03-01T09:55:37;23.70;;;17.03;;
49175;SDS011;35012;47.200;9.748;2023-03-01T10:00:47;23.03;;;15.93;;
49175;SDS011;35012;47.200;9.748;2023-03-01T10:08:48;22.40;;;16.87;;
49175;SDS011;35012;47.200;9.748;2023-03-01T10:11:20;21.60;;;16.20;;
49175;SDS011;35012;47.200;9.748;2023-03-01T10:19:09;21.80;;;15.80;;
49175;SDS011;35012;47.200;9.748;2023-03-01T10:21:39;21.97;;;15.70;;
49175;SDS011;35012;47.200;9.748;2023-03-01T10:24:10;22.17;;;16.60;;
49175;SDS011;35012;47.200;9.748;2023-03-01T10:27:01;24.03;;;16.83;;
49175;SDS011;35012;47.200;9.748;2023-03-01T10:29:34;23.07;;;16.13;;
49175;SDS011;35012;47.200;9.748;2023-03-01T10:32:03;23.73;;;16.63;;
49175;SDS011;35012;47.200;9.748;2023-03-01T10:34:32;22.37;;;16.30;;
49175;SDS011;35012;47.200;9.748;2023-03-01T10:39:54;22.93;;;16.53;;
49175;SDS011;35012;47.200;9.748;2023-03-01T10:42:28;22.33;;;16.40;;
49175;SDS011;35012;47.200;9.748;2023-03-01T10:44:57;21.40;;;16.10;;
49175;SDS011;35012;47.200;9.748;2023-03-01T10:47:23;21.23;;;15.50;;
49175;SDS011;35012;47.200;9.748;2023-03-01T10:52:20;24.20;;;17.37;;
49175;SDS011;35012;47.200;9.748;2023-03-01T10:55:01;20.97;;;16.20;;
49175;SDS011;35012;47.200;9.748;2023-03-01T10:57:48;20.83;;;15.57;;
49175;SDS011;35012;47.200;9.748;2023-03-01T11:00:15;21.93;;;15.93;;
49175;SDS011;35012;47.200;9.748;2023-03-01T11:02:49;18.97;;;14.53;;
49175;SDS011;35012;47.200;9.748;2023-03-01T11:05:36;21.60;;;16.10;;
49175;SDS011;35012;47.200;9.748;2023-03-01T11:08:02;19.97;;;15.30;;
49175;SDS011;35012;47.200;9.748;2023-03-01T11:10:32;20.93;;;15.87;;
49175;SDS011;35012;47.200;9.748;2023-03-01T11:13:13;19.90;;;15.37;;
49175;SDS011;35012;47.200;9.748;2023-03-01T11:15:41;22.23;;;16.07;;
49175;SDS011;35012;47.200;9.748;2023-03-01T11:18:17;21.67;;;16.20;;
49175;SDS011;35012;47.200;9.748;2023-03-01T11:20:45;21.87;;;15.67;;
49175;SDS011;35012;47.200;9.748;2023-03-01T11:23:12;19.47;;;15.20;;
49175;SDS011;35012;47.200;9.748;2023-03-01T11:25:40;20.70;;;15.40;;
49175;SDS011;35012;47.200;9.748;2023-03-01T11:28:07;23.47;;;16.77;;
49175;SDS011;35012;47.200;9.748;2023-03-01T11:36:04;20.17;;;16.30;;
49175;SDS011;35012;47.200;9.748;2023-03-01T11:38:34;20.13;;;14.87;;
49175;SDS011;35012;47.200;9.748;2023-03-01T11:41:08;22.00;;;15.80;;
49175;SDS011;35012;47.200;9.748;2023-03-01T11:43:57;19.97;;;15.30;;
49175;SDS011;35012;47.200;9.748;2023-03-01T11:57:19;19.97;;;15.10;;
49175;SDS011;35012;47.200;9.748;2023-03-01T12:16:15;17.97;;;15.17;;
49175;SDS011;35012;47.200;9.748;2023-03-01T12:21:23;18.60;;;15.17;;
49175;SDS011;35012;47.200;9.748;2023-03-01T12:26:43;19.50;;;15.57;;
49175;SDS011;35012;47.200;9.748;2023-03-01T12:29:31;20.73;;;15.70;;
49175;SDS011;35012;47.200;9.748;2023-03-01T12:51:05;18.97;;;15.70;;
49175;SDS011;35012;47.200;9.748;2023-03-01T12:53:36;19.53;;;14.87;;
49175;SDS011;35012;47.200;9.748;2023-03-01T12:56:12;18.37;;;14.97;;
49175;SDS011;35012;47.200;9.748;2023-03-01T13:04:06;17.93;;;15.43;;
49175;SDS011;35012;47.200;9.748;2023-03-01T13:09:13;20.30;;;15.60;;
49175;SDS011;35012;47.200;9.748;2023-03-01T13:11:48;20.47;;;14.70;;
49175;SDS011;35012;47.200;9.748;2023-03-01T13:16:45;19.00;;;15.77;;
49175;SDS011;35012;47.200;9.748;2023-03-01T13:19:32;18.60;;;15.20;;
49175;SDS011;35012;47.200;9.748;2023-03-01T13:21:57;19.33;;;15.37;;
49175;SDS011;35012;47.200;9.748;2023-03-01T13:24:24;20.60;;;16.00;;
49175;SDS011;35012;47.200;9.748;2023-03-01T13:29:45;19.57;;;15.30;;
49175;SDS011;35012;47.200;9.748;2023-03-01T13:37:42;19.37;;;14.70;;
49175;SDS011;35012;47.200;9.748;2023-03-01T13:42:45;17.90;;;14.93;;
49175;SDS011;35012;47.200;9.748;2023-03-01T13:45:21;18.33;;;14.40;;
49175;SDS011;35012;47.200;9.748;2023-03-01T13:48:15;17.07;;;14.03;;
49175;SDS011;35012;47.200;9.748;2023-03-01T13:50:47;16.63;;;14.00;;
49175;SDS011;35012;47.200;9.748;2023-03-01T13:53:20;17.40;;;13.93;;
49175;SDS011;35012;47.200;9.748;2023-03-01T13:55:49;18.17;;;14.50;;
49175;SDS011;35012;47.200;9.748;2023-03-01T13:58:23;18.20;;;13.80;;
49175;SDS011;35012;47.200;9.748;2023-03-01T14:01:01;18.93;;;14.90;;
49175;SDS011;35012;47.200;9.748;2023-03-01T14:03:29;18.00;;;13.97;;
49175;SDS011;35012;47.200;9.748;2023-03-01T14:06:05;20.03;;;14.47;;
49175;SDS011;35012;47.200;9.748;2023-03-01T14:08:32;17.47;;;14.10;;
49175;SDS011;35012;47.200;9.748;2023-03-01T14:16:42;19.73;;;14.60;;
49175;SDS011;35012;47.200;9.748;2023-03-01T14:19:14;17.50;;;13.73;;
49175;SDS011;35012;47.200;9.748;2023-03-01T14:21:58;17.77;;;14.03;;
49175;SDS011;35012;47.200;9.748;2023-03-01T14:24:56;18.03;;;13.60;;
49175;SDS011;35012;47.200;9.748;2023-03-01T14:27:28;18.83;;;13.90;;
49175;SDS011;35012;47.200;9.748;2023-03-01T14:30:02;19.33;;;13.63;;
49175;SDS011;35012;47.200;9.748;2023-03-01T14:32:30;19.73;;;14.03;;
49175;SDS011;35012;47.200;9.748;2023-03-01T14:34:57;18.33;;;13.73;;
49175;SDS011;35012;47.200;9.748;2023-03-01T14:37:25;17.70;;;13.63;;
49175;SDS011;35012;47.200;9.748;2023-03-01T14:39:52;17.23;;;13.03;;
49175;SDS011;35012;47.200;9.748;2023-03-01T14:42:19;18.57;;;13.70;;
49175;SDS011;35012;47.200;9.748;2023-03-01T14:44:46;19.17;;;13.73;;
49175;SDS011;35012;47.200;9.748;2023-03-01T14:47:16;17.53;;;14.27;;
49175;SDS011;35012;47.200;9.748;2023-03-01T14:49:49;18.00;;;13.43;;
49175;SDS011;35012;47.200;9.748;2023-03-01T14:52:22;18.57;;;13.10;;
49175;SDS011;35012;47.200;9.748;2023-03-01T14:54:53;17.13;;;13.43;;
49175;SDS011;35012;47.200;9.748;2023-03-01T14:57:21;19.53;;;13.37;;
49175;SDS011;35012;47.200;9.748;2023-03-01T14:59:48;19.07;;;13.80;;
49175;SDS011;35012;47.200;9.748;2023-03-01T15:02:19;19.50;;;14.10;;
49175;SDS011;35012;47.200;9.748;2023-03-01T15:04:49;23.70;;;16.20;;
49175;SDS011;35012;47.200;9.748;2023-03-01T15:07:30;18.00;;;13.87;;
49175;SDS011;35012;47.200;9.748;2023-03-01T15:09:58;31.70;;;20.67;;
49175;SDS011;35012;47.200;9.748;2023-03-01T15:14:52;17.23;;;13.77;;
49175;SDS011;35012;47.200;9.748;2023-03-01T15:17:31;19.33;;;14.07;;
49175;SDS011;35012;47.200;9.748;2023-03-01T15:20:00;18.77;;;14.43;;
49175;SDS011;35012;47.200;9.748;2023-03-01T15:22:27;19.07;;;14.37;;
49175;SDS011;35012;47.200;9.748;2023-03-01T15:24:53;18.27;;;14.03;;
49175;SDS011;35012;47.200;9.748;2023-03-01T15:27:20;19.10;;;13.63;;
49175;SDS011;35012;47.200;9.748;2023-03-01T15:29:49;17.97;;;13.73;;
49175;SDS011;35012;47.200;9.748;2023-03-01T15:32:29;18.17;;;14.00;;
49175;SDS011;35012;47.200;9.748;2023-03-01T15:35:31;17.87;;;13.37;;
49175;SDS011;35012;47.200;9.748;2023-03-01T15:37:59;19.73;;;14.17;;
49175;SDS011;35012;47.200;9.748;2023-03-01T15:40:29;17.60;;;13.47;;
49175;SDS011;35012;47.200;9.748;2023-03-01T15:43:00;17.97;;;13.93;;
49175;SDS011;35012;47.200;9.748;2023-03-01T15:45:27;19.17;;;14.13;;
49175;SDS011;35012;47.200;9.748;2023-03-01T15:47:57;17.93;;;13.67;;
49175;SDS011;35012;47.200;9.748;2023-03-01T15:50:36;20.10;;;14.30;;
49175;SDS011;35012;47.200;9.748;2023-03-01T15:53:06;19.10;;;14.10;;
49175;SDS011;35012;47.200;9.748;2023-03-01T15:55:36;16.87;;;13.07;;
49175;SDS011;35012;47.200;9.748;2023-03-01T16:00:44;18.90;;;14.10;;
49175;SDS011;35012;47.200;9.748;2023-03-01T16:03:10;23.60;;;16.67;;
49175;SDS011;35012;47.200;9.748;2023-03-01T16:05:37;19.73;;;13.87;;
49175;SDS011;35012;47.200;9.748;2023-03-01T16:08:03;20.50;;;14.77;;
49175;SDS011;35012;47.200;9.748;2023-03-01T16:10:30;17.77;;;13.07;;
49175;SDS011;35012;47.200;9.748;2023-03-01T16:12:56;19.43;;;14.20;;
49175;SDS011;35012;47.200;9.748;2023-03-01T16:15:24;18.53;;;13.80;;
49175;SDS011;35012;47.200;9.748;2023-03-01T16:17:56;16.33;;;13.33;;
49175;SDS011;35012;47.200;9.748;2023-03-01T16:20:23;19.77;;;14.90;;
49175;SDS011;35012;47.200;9.748;2023-03-01T16:22:49;22.67;;;17.23;;
49175;SDS011;35012;47.200;9.748;2023-03-01T16:25:15;20.97;;;15.97;;